Mountain Home Air Force Base
KMUO : now visible

Airfield :











YOU CAN JOIN US ON...

 
LOGIN :

Register | Disclaimer

   EN    FR    IT 

 









Legend :    VFR   Marginal VFR   IFR   Intensive IFR   Very Intensive IFR
Visi :
Ceiling :
>= 8 km
>= 3000ft
5 to 8 km
1000 to 3000 ft
1500m to 5 km
500 to 1000 ft
800 to 1500m
200 to 500 ft
< 800m
< 200 ft
Symbols :   Thunderstorms  Fog  Heavy snow  Heavy precipitations  Wind > 20 kt







- Airport Elevation : 2996 ft


KMUO - Mountain Home Air Force Base

CURRENT METAR :
  • 211058Z 33006KT 7SM RA OVC048 09/09 A2965 RMK AO2A SLP037 P0004 $

EXPIRED METARs :
  • 210958Z 22005KT 6SM -RA FEW017 SCT034 OVC044 09/09 A2965 RMK AO2A SLP035 P0002 $
  • 210858Z 23005KT 8SM -RA BKN041 OVC050 09/09 A2965 RMK AO2A SLP035 P0006 60021 57007 $

TAF TAF KMUO
Valid from the 21 at 10:00 until the 22 at 16:00 UTC


211009Z 2110/2216 VRB06KT 8000 -RA BKN030 OVC070 620505 QNH2962INS
BECMG 2114/2115 32015G20KT 9000 -SHRA SCT030 BKN060 610505 QNH2960INS
BECMG 2122/2123 31015G25KT 9999 VCSH FEW040 SCT070 BKN100 510009 QNH2958INS
BECMG 2207/2208 32012G18KT 9999 NSW FEW050 SCT090 BKN120 QNH2957INS
BECMG 2214/2215 31015G25KT 9999 VCSH SCT030 BKN070 610604 510009 QNH2964INS TX13/2122Z TN07/2212Z
KZLC FIR / North America



MET'MAP, your aeronautical weather chart ! - Copyright ORBIFLY December 2007 - Disclaimer

ORBIFLY MET'MAP TEAM :

Programming & Development : Alexandra Zaïnal
Concept & Development : Baudouin d'Aumeries
Co-Development & Prog : Marc-Olivier Méhu
Technical & hardware support : Manuel Goepfert

Contact : metmap@orbifly.com




SOURCES & CREDITS :

   NOAA       Earth
Advisory